Currently 58°F in Beaumont, California, USA
58°F
66°F / 58°F
2 mph S
0.00"
Tuesday, March 26, 2019 7:30 PM PDT

Beaumont, California Weather Summary
Last 36 Hours

Temperature Winds Hourly Humidity Dewpoint
Time Report Norm Report Norm Max Gusts Precip. Rpt. Norm Rpt. Norm Pressure
1Tue 07:30 PM  57.9°F  57°F  2 mph S  4 mph  3 mph  0.00"  41%  57%  33°F  41°F  29.89"
3Tue 07:22 PM  57.9°F  57°F  3 mph S  4 mph  5 mph  ----  39%  57%  32°F  41°F  29.88"
Tue 07:00 PM  59.5°F  58°F  1 mph S  3 mph  6 mph  0.00"  40%  54%  34°F  41°F  29.88"
Tue 06:00 PM  63.3°F  61°F  1 mph S  4 mph  6 mph  0.00"  41%  48%  38°F  41°F  29.89"
Tue 05:00 PM  65.1°F  63°F  3 mph S  5 mph  9 mph  0.00"  36%  45%  36°F  41°F  29.89"
Tue 04:00 PM  65.3°F  64°F  1 mph SW  5 mph  12 mph  0.00"  37%  43%  37°F  41°F  29.90"
2Tue 03:33 PM  65.8°F  64°F  2 mph S  5 mph  6 mph  ----  39%  43%  39°F  41°F  29.91"
Tue 03:00 PM  64.2°F  64°F  5 mph S  5 mph  9 mph  0.00"  34%  43%  34°F  41°F  29.91"
Tue 02:00 PM  59.4°F  64°F  6 mph E  6 mph  7 mph  0.00"  53%  43%  42°F  40°F  30.11"
Tue 01:00 PM  59.4°F  63°F  6 mph E  6 mph  7 mph  0.00"  53%  46%  42°F  41°F  30.11"
Tue 12:00 PM  59.4°F  61°F  6 mph E  5 mph  7 mph  0.00"  53%  49%  42°F  41°F  30.11"
Tue 11:00 AM  59.4°F  59°F  6 mph E  5 mph  7 mph  0.00"  53%  53%  42°F  41°F  30.11"
Tue 10:00 AM  59.4°F  57°F  6 mph E  4 mph  7 mph  0.00"  53%  57%  42°F  41°F  30.11"
Tue 09:00 AM  59.4°F  55°F  6 mph E  3 mph  7 mph  0.00"  53%  61%  42°F  41°F  30.11"
Tue 08:00 AM  59.4°F  53°F  6 mph E  2 mph  7 mph  0.00"  53%  64%  42°F  40°F  30.11"
Tue 07:00 AM  59.4°F  50°F  6 mph E  3 mph  7 mph  0.00"  53%  67%  42°F  39°F  30.11"
Tue 06:00 AM  59.4°F  50°F  6 mph E  3 mph  7 mph  0.00"  53%  68%  42°F  39°F  30.11"
Tue 05:00 AM  59.4°F  50°F  6 mph E  3 mph  7 mph  0.00"  53%  68%  42°F  39°F  30.11"
Tue 04:00 AM  59.4°F  50°F  6 mph E  3 mph  7 mph  0.00"  53%  68%  42°F  40°F  30.11"
Tue 03:00 AM  59.4°F  50°F  6 mph E  2 mph  7 mph  0.00"  53%  68%  42°F  40°F  30.11"
Tue 02:00 AM  59.4°F  51°F  6 mph E  3 mph  7 mph  0.00"  53%  67%  42°F  40°F  30.11"
Tue 01:00 AM  59.4°F  51°F  6 mph E  3 mph  7 mph  0.00"  53%  67%  42°F  40°F  30.11"
Tue 12:00 AM  59.4°F  52°F  6 mph E  3 mph  7 mph  0.00"  53%  68%  42°F  41°F  30.11"
Mon 11:00 PM  59.4°F  52°F  6 mph E  3 mph  7 mph  0.00"  53%  67%  42°F  41°F  30.11"
Mon 10:00 PM  59.4°F  53°F  6 mph E  3 mph  7 mph  0.00"  53%  66%  42°F  41°F  30.11"
Mon 09:00 PM  59.4°F  55°F  6 mph E  3 mph  7 mph  0.00"  53%  64%  42°F  42°F  30.11"
Mon 08:00 PM  59.4°F  56°F  6 mph E  4 mph  7 mph  0.00"  53%  60%  42°F  42°F  30.11"
Mon 07:00 PM  59.4°F  58°F  6 mph E  3 mph  7 mph  0.00"  53%  54%  42°F  41°F  30.11"
Mon 06:00 PM  59.4°F  62°F  6 mph E  4 mph  7 mph  0.00"  53%  47%  42°F  41°F  30.11"
Mon 05:00 PM  59.4°F  64°F  6 mph E  4 mph  7 mph  0.00"  53%  44%  42°F  40°F  30.11"
Mon 04:00 PM  59.4°F  64°F  6 mph E  5 mph  7 mph  0.00"  53%  43%  42°F  40°F  30.11"
Mon 03:00 PM  59.4°F  64°F  6 mph E  5 mph  7 mph  0.00"  53%  43%  42°F  40°F  30.11"
Mon 02:00 PM  59.4°F  64°F  6 mph E  5 mph  7 mph  0.00"  53%  43%  42°F  40°F  30.11"
Mon 01:00 PM  59.4°F  63°F  6 mph E  6 mph  7 mph  0.00"  53%  46%  42°F  41°F  30.11"
Mon 12:00 PM  59.4°F  61°F  6 mph E  5 mph  7 mph  0.00"  53%  49%  42°F  41°F  30.11"
Mon 11:00 AM  59.4°F  59°F  6 mph E  5 mph  7 mph  0.00"  53%  53%  42°F  41°F  30.11"
Mon 10:00 AM  59.4°F  57°F  6 mph E  4 mph  7 mph  0.00"  53%  57%  42°F  41°F  30.11"
Mon 09:00 AM  59.4°F  55°F  6 mph E  3 mph  7 mph  0.00"  53%  61%  42°F  41°F  30.11"
Mon 08:00 AM  59.4°F  53°F  6 mph E  2 mph  7 mph  0.00"  53%  63%  42°F  40°F  30.11"

  1. Current weather data. No green row appears if the current weather data is also the high or low for the current day.
  2. High temperature for the current day.
  3. Low temperature for the current day.

The Beaumont, California weather pages are a service of WeatherCurrents. Cherry Valley is located in northern Riverside County, California, a community of the northern part of Beaumont, along the Interstate 10 highway, in the San Gorgonio pass area, between the communities of Calimesa, Banning.
Copyright ©Tue Mar 26 19:34:27 PDT 2019  WeatherCurrents. All rights reserved. - Submit questions and comments - Privacy Policy

This page automatically refreshes every 10 minutes.